Hauptseite
METAR-TAF:

METAR-TAF

Flughäfen :

Flughafen Chambéry-Savoie

Chambery / Aix-Les-Bains, Frankreich

Breite: 45-39N, Länge: 005-53E, Höhe: 235 m

Beobachtung

Neuester Wetterbericht von vor 28 Minuten, um 01:30 UTC
Wind 3 kt aus unterschiedlichen Richtungen
Temperatur 18°C
Luftfeuchtigkeit 77%
Luftdruck 1015 hPa
Sichtweite 10 km oder mehr
keine Wolken unter 1500 m und keine Kumulonimbus oder Gewitterwolken

METAR: LFLB 170130Z AUTO VRB03KT CAVOK 18/14 Q1015 NOSIG

Zeit: 03:58 (01:58 UTC)

Prognose

Neuester Wetterbericht von vor 2 Stunden und 58 Minuten, um 23:00 UTC
Gültige Prognose vom 17 um 00 UTC bis 17 um 24 UTC
Wind 2 kt aus unterschiedlichen Richtungen
Sichtweite 10 km oder mehr
keine Wolken unter 1500 m und keine Kumulonimbus oder Gewitterwolken
Übergehend zu
vom 17 um 08 UTC bis 17 um 10 UTC
Wind 12 kt aus Nord

TAF: LFLB 162300Z 1700/1724 VRB02KT CAVOK BECMG 1708/1710 35012KT

Wetterbeobachtungen und Prognosen von mehr als 4000 Flughäfen (METAR und TAF Bericht).

Die verfügbaren Stationen werden durch gelbe und rote Markierungen auf der Karte dargestellt.

Führen Sie die Maus auf sie, um den Namen der Station zu sehen.

Darauf klicken, um die Beobachtung von Wetterbeobachtungen und Prognosen zu sehen.

Um die Karte zu ändern : klicken Sie auf den grünen Tasten mit einem schwarzen Kreuz Zum Vergrößern, auf den grünen Button mit einem Gedankenstrich zu verkleinern, oder auf die grünen Pfeile für benachbarte Karten.


METAR-TAF: